sensor_id;sensor_type;location;lat;lon;timestamp;temperature;humidity
70726;DHT22;58304;53.104;6.022;2022-09-12T00:01:21;14.50;99.90
70726;DHT22;58304;53.104;6.022;2022-09-12T00:03:50;14.60;99.90
70726;DHT22;58304;53.104;6.022;2022-09-12T00:06:21;14.60;99.90
70726;DHT22;58304;53.104;6.022;2022-09-12T00:08:48;14.60;99.90
70726;DHT22;58304;53.104;6.022;2022-09-12T00:11:14;14.60;99.90
70726;DHT22;58304;53.104;6.022;2022-09-12T00:13:41;14.60;99.90
70726;DHT22;58304;53.104;6.022;2022-09-12T00:16:13;14.60;99.90
70726;DHT22;58304;53.104;6.022;2022-09-12T00:18:40;14.60;99.90
70726;DHT22;58304;53.104;6.022;2022-09-12T00:21:05;14.60;99.90
70726;DHT22;58304;53.104;6.022;2022-09-12T00:23:32;14.50;99.90
70726;DHT22;58304;53.104;6.022;2022-09-12T00:25:57;14.50;99.90
70726;DHT22;58304;53.104;6.022;2022-09-12T00:28:23;14.50;99.90
70726;DHT22;58304;53.104;6.022;2022-09-12T00:30:49;14.50;99.90
70726;DHT22;58304;53.104;6.022;2022-09-12T00:33:16;14.50;99.90
70726;DHT22;58304;53.104;6.022;2022-09-12T00:35:47;14.50;99.90
70726;DHT22;58304;53.104;6.022;2022-09-12T00:38:15;14.50;99.90
70726;DHT22;58304;53.104;6.022;2022-09-12T00:40:42;14.40;99.90
70726;DHT22;58304;53.104;6.022;2022-09-12T00:43:38;14.30;99.90
70726;DHT22;58304;53.104;6.022;2022-09-12T00:46:20;14.30;99.90
70726;DHT22;58304;53.104;6.022;2022-09-12T00:49:16;14.20;99.90
70726;DHT22;58304;53.104;6.022;2022-09-12T00:52:02;14.30;99.90
70726;DHT22;58304;53.104;6.022;2022-09-12T00:54:35;14.30;99.90
70726;DHT22;58304;53.104;6.022;2022-09-12T00:57:05;14.30;99.90
70726;DHT22;58304;53.104;6.022;2022-09-12T00:59:53;14.30;99.90
70726;DHT22;58304;53.104;6.022;2022-09-12T01:02:20;14.30;99.90
70726;DHT22;58304;53.104;6.022;2022-09-12T01:04:46;14.30;99.90
70726;DHT22;58304;53.104;6.022;2022-09-12T01:07:12;14.20;99.90
70726;DHT22;58304;53.104;6.022;2022-09-12T01:09:41;14.10;99.90
70726;DHT22;58304;53.104;6.022;2022-09-12T01:12:07;14.00;99.90
70726;DHT22;58304;53.104;6.022;2022-09-12T01:14:33;14.10;99.90
70726;DHT22;58304;53.104;6.022;2022-09-12T01:16:59;14.10;99.90
70726;DHT22;58304;53.104;6.022;2022-09-12T01:19:59;14.10;99.90
70726;DHT22;58304;53.104;6.022;2022-09-12T01:25:41;14.10;99.90
70726;DHT22;58304;53.104;6.022;2022-09-12T01:34:06;14.00;99.90
70726;DHT22;58304;53.104;6.022;2022-09-12T01:36:45;14.10;99.90
70726;DHT22;58304;53.104;6.022;2022-09-12T01:42:13;14.00;99.90
70726;DHT22;58304;53.104;6.022;2022-09-12T01:50:06;14.00;99.90
70726;DHT22;58304;53.104;6.022;2022-09-12T01:53:03;14.00;99.90
70726;DHT22;58304;53.104;6.022;2022-09-12T01:55:37;13.90;99.90
70726;DHT22;58304;53.104;6.022;2022-09-12T01:58:11;13.90;99.90
70726;DHT22;58304;53.104;6.022;2022-09-12T02:00:54;13.90;99.90
70726;DHT22;58304;53.104;6.022;2022-09-12T02:03:27;14.00;99.90
70726;DHT22;58304;53.104;6.022;2022-09-12T02:06:21;13.90;99.90
70726;DHT22;58304;53.104;6.022;2022-09-12T02:08:52;13.90;99.90
70726;DHT22;58304;53.104;6.022;2022-09-12T02:11:19;13.90;99.90
70726;DHT22;58304;53.104;6.022;2022-09-12T02:13:53;13.90;99.90
70726;DHT22;58304;53.104;6.022;2022-09-12T02:16:29;13.90;99.90
70726;DHT22;58304;53.104;6.022;2022-09-12T02:19:07;13.90;99.90
70726;DHT22;58304;53.104;6.022;2022-09-12T02:21:35;13.90;99.90
70726;DHT22;58304;53.104;6.022;2022-09-12T02:24:08;13.90;99.90
70726;DHT22;58304;53.104;6.022;2022-09-12T02:26:40;13.90;99.90
70726;DHT22;58304;53.104;6.022;2022-09-12T02:29:08;13.90;99.90
70726;DHT22;58304;53.104;6.022;2022-09-12T02:31:48;13.90;99.90
70726;DHT22;58304;53.104;6.022;2022-09-12T02:37:06;13.80;99.90
70726;DHT22;58304;53.104;6.022;2022-09-12T02:39:35;13.90;99.90
70726;DHT22;58304;53.104;6.022;2022-09-12T02:42:02;13.80;99.90
70726;DHT22;58304;53.104;6.022;2022-09-12T02:44:29;13.80;99.90
70726;DHT22;58304;53.104;6.022;2022-09-12T02:49:32;13.80;99.90
70726;DHT22;58304;53.104;6.022;2022-09-12T02:51:59;13.70;99.90
70726;DHT22;58304;53.104;6.022;2022-09-12T02:54:25;13.70;99.90
70726;DHT22;58304;53.104;6.022;2022-09-12T02:56:52;13.70;99.90
70726;DHT22;58304;53.104;6.022;2022-09-12T02:59:19;13.70;99.90
70726;DHT22;58304;53.104;6.022;2022-09-12T03:04:40;13.70;99.90
70726;DHT22;58304;53.104;6.022;2022-09-12T03:07:23;13.80;99.90
70726;DHT22;58304;53.104;6.022;2022-09-12T03:12:40;13.70;99.90
70726;DHT22;58304;53.104;6.022;2022-09-12T03:15:33;13.70;99.90
70726;DHT22;58304;53.104;6.022;2022-09-12T03:18:12;13.80;99.90
70726;DHT22;58304;53.104;6.022;2022-09-12T03:23:28;13.80;99.90
70726;DHT22;58304;53.104;6.022;2022-09-12T03:26:00;13.80;99.90
70726;DHT22;58304;53.104;6.022;2022-09-12T03:28:27;13.80;99.90
70726;DHT22;58304;53.104;6.022;2022-09-12T03:30:55;13.70;99.90
70726;DHT22;58304;53.104;6.022;2022-09-12T03:33:22;13.70;99.90
70726;DHT22;58304;53.104;6.022;2022-09-12T03:35:49;13.70;99.90
70726;DHT22;58304;53.104;6.022;2022-09-12T03:38:15;13.70;99.90
70726;DHT22;58304;53.104;6.022;2022-09-12T03:40:41;13.70;99.90
70726;DHT22;58304;53.104;6.022;2022-09-12T03:43:08;13.70;99.90
70726;DHT22;58304;53.104;6.022;2022-09-12T03:45:34;13.70;99.90
70726;DHT22;58304;53.104;6.022;2022-09-12T03:48:00;13.60;99.90
70726;DHT22;58304;53.104;6.022;2022-09-12T03:50:26;13.70;99.90
70726;DHT22;58304;53.104;6.022;2022-09-12T03:52:52;13.60;99.90
70726;DHT22;58304;53.104;6.022;2022-09-12T03:55:17;13.60;99.90
70726;DHT22;58304;53.104;6.022;2022-09-12T03:57:43;13.70;99.90
70726;DHT22;58304;53.104;6.022;2022-09-12T04:00:09;13.60;99.90
70726;DHT22;58304;53.104;6.022;2022-09-12T04:02:35;13.70;99.90
70726;DHT22;58304;53.104;6.022;2022-09-12T04:05:01;13.70;99.90
70726;DHT22;58304;53.104;6.022;2022-09-12T04:07:26;13.60;99.90
70726;DHT22;58304;53.104;6.022;2022-09-12T04:09:52;13.70;99.90
70726;DHT22;58304;53.104;6.022;2022-09-12T04:12:18;13.70;99.90
70726;DHT22;58304;53.104;6.022;2022-09-12T04:14:44;13.70;99.90
70726;DHT22;58304;53.104;6.022;2022-09-12T04:17:10;13.80;99.90
70726;DHT22;58304;53.104;6.022;2022-09-12T04:19:35;13.80;99.90
70726;DHT22;58304;53.104;6.022;2022-09-12T04:22:01;13.90;99.90
70726;DHT22;58304;53.104;6.022;2022-09-12T04:24:27;13.90;99.90
70726;DHT22;58304;53.104;6.022;2022-09-12T04:26:52;13.90;99.90
70726;DHT22;58304;53.104;6.022;2022-09-12T04:29:18;13.90;99.90
70726;DHT22;58304;53.104;6.022;2022-09-12T04:31:43;13.90;99.90
70726;DHT22;58304;53.104;6.022;2022-09-12T04:34:09;14.00;99.90
70726;DHT22;58304;53.104;6.022;2022-09-12T04:36:35;14.00;99.90
70726;DHT22;58304;53.104;6.022;2022-09-12T04:39:02;14.00;99.90
70726;DHT22;58304;53.104;6.022;2022-09-12T04:41:30;14.10;99.90
70726;DHT22;58304;53.104;6.022;2022-09-12T04:44:02;14.10;99.90
70726;DHT22;58304;53.104;6.022;2022-09-12T04:46:31;14.10;99.90
70726;DHT22;58304;53.104;6.022;2022-09-12T04:48:57;14.10;99.90
70726;DHT22;58304;53.104;6.022;2022-09-12T04:51:28;14.10;99.90
70726;DHT22;58304;53.104;6.022;2022-09-12T04:53:59;14.20;99.90
70726;DHT22;58304;53.104;6.022;2022-09-12T04:56:26;14.20;99.90
70726;DHT22;58304;53.104;6.022;2022-09-12T04:58:51;14.20;99.90
70726;DHT22;58304;53.104;6.022;2022-09-12T05:01:19;14.30;99.90
70726;DHT22;58304;53.104;6.022;2022-09-12T05:03:46;14.30;99.90
70726;DHT22;58304;53.104;6.022;2022-09-12T05:06:21;14.30;99.90
70726;DHT22;58304;53.104;6.022;2022-09-12T05:08:49;14.40;99.90
70726;DHT22;58304;53.104;6.022;2022-09-12T05:11:19;14.40;99.90
70726;DHT22;58304;53.104;6.022;2022-09-12T05:13:45;14.40;99.90
70726;DHT22;58304;53.104;6.022;2022-09-12T05:16:12;14.50;99.90
70726;DHT22;58304;53.104;6.022;2022-09-12T05:18:39;14.50;99.90
70726;DHT22;58304;53.104;6.022;2022-09-12T05:21:07;14.50;99.90
70726;DHT22;58304;53.104;6.022;2022-09-12T05:23:34;14.50;99.90
70726;DHT22;58304;53.104;6.022;2022-09-12T05:26:00;14.60;99.90
70726;DHT22;58304;53.104;6.022;2022-09-12T05:28:32;14.60;99.90
70726;DHT22;58304;53.104;6.022;2022-09-12T05:31:13;14.70;99.90
70726;DHT22;58304;53.104;6.022;2022-09-12T05:33:41;14.50;99.90
70726;DHT22;58304;53.104;6.022;2022-09-12T05:36:26;14.60;99.90
70726;DHT22;58304;53.104;6.022;2022-09-12T05:38:52;14.50;99.90
70726;DHT22;58304;53.104;6.022;2022-09-12T05:41:20;14.50;99.90
70726;DHT22;58304;53.104;6.022;2022-09-12T05:43:49;14.60;99.90
70726;DHT22;58304;53.104;6.022;2022-09-12T05:46:17;14.50;99.90
70726;DHT22;58304;53.104;6.022;2022-09-12T05:48:46;14.50;99.90
70726;DHT22;58304;53.104;6.022;2022-09-12T05:51:14;14.60;99.90
70726;DHT22;58304;53.104;6.022;2022-09-12T05:53:44;14.60;99.90
70726;DHT22;58304;53.104;6.022;2022-09-12T05:56:12;14.60;99.90
70726;DHT22;58304;53.104;6.022;2022-09-12T05:58:42;14.60;99.90
70726;DHT22;58304;53.104;6.022;2022-09-12T06:01:10;14.70;99.90
70726;DHT22;58304;53.104;6.022;2022-09-12T06:03:43;14.70;99.90
70726;DHT22;58304;53.104;6.022;2022-09-12T06:06:09;14.80;99.90
70726;DHT22;58304;53.104;6.022;2022-09-12T06:08:39;14.80;99.90
70726;DHT22;58304;53.104;6.022;2022-09-12T06:11:06;14.90;99.90
70726;DHT22;58304;53.104;6.022;2022-09-12T06:13:35;15.00;99.90
70726;DHT22;58304;53.104;6.022;2022-09-12T06:16:18;15.00;99.90
70726;DHT22;58304;53.104;6.022;2022-09-12T06:18:52;15.10;99.90
70726;DHT22;58304;53.104;6.022;2022-09-12T06:21:19;15.20;99.90
70726;DHT22;58304;53.104;6.022;2022-09-12T06:23:45;15.20;99.90
70726;DHT22;58304;53.104;6.022;2022-09-12T06:26:13;15.10;99.90
70726;DHT22;58304;53.104;6.022;2022-09-12T06:28:41;15.20;99.90
70726;DHT22;58304;53.104;6.022;2022-09-12T06:31:09;15.20;99.90
70726;DHT22;58304;53.104;6.022;2022-09-12T06:33:37;15.10;99.90
70726;DHT22;58304;53.104;6.022;2022-09-12T06:38:29;15.20;99.90
70726;DHT22;58304;53.104;6.022;2022-09-12T06:40:56;15.30;99.90
70726;DHT22;58304;53.104;6.022;2022-09-12T06:43:22;15.20;99.90
70726;DHT22;58304;53.104;6.022;2022-09-12T06:45:48;15.30;99.90
70726;DHT22;58304;53.104;6.022;2022-09-12T06:48:14;15.30;99.90
70726;DHT22;58304;53.104;6.022;2022-09-12T06:50:40;15.40;99.90
70726;DHT22;58304;53.104;6.022;2022-09-12T06:53:06;15.40;99.90
70726;DHT22;58304;53.104;6.022;2022-09-12T06:55:31;15.50;99.90
70726;DHT22;58304;53.104;6.022;2022-09-12T06:57:58;15.60;99.90
70726;DHT22;58304;53.104;6.022;2022-09-12T07:00:24;15.60;99.90
70726;DHT22;58304;53.104;6.022;2022-09-12T07:02:53;15.70;99.90
70726;DHT22;58304;53.104;6.022;2022-09-12T07:05:21;15.70;99.90
70726;DHT22;58304;53.104;6.022;2022-09-12T07:07:46;15.70;99.90
70726;DHT22;58304;53.104;6.022;2022-09-12T07:10:12;15.70;99.90
70726;DHT22;58304;53.104;6.022;2022-09-12T07:12:38;15.80;99.90
70726;DHT22;58304;53.104;6.022;2022-09-12T07:15:04;15.80;99.90
70726;DHT22;58304;53.104;6.022;2022-09-12T07:17:30;15.80;99.90
70726;DHT22;58304;53.104;6.022;2022-09-12T07:19:55;15.90;99.90
70726;DHT22;58304;53.104;6.022;2022-09-12T07:22:21;15.90;99.90
70726;DHT22;58304;53.104;6.022;2022-09-12T07:24:46;15.90;99.90
70726;DHT22;58304;53.104;6.022;2022-09-12T07:27:12;16.00;99.90
70726;DHT22;58304;53.104;6.022;2022-09-12T07:29:38;16.10;99.90
70726;DHT22;58304;53.104;6.022;2022-09-12T07:32:04;16.20;99.90
70726;DHT22;58304;53.104;6.022;2022-09-12T07:34:30;16.30;99.90
70726;DHT22;58304;53.104;6.022;2022-09-12T07:36:56;16.30;99.90
70726;DHT22;58304;53.104;6.022;2022-09-12T07:39:22;16.30;99.90
70726;DHT22;58304;53.104;6.022;2022-09-12T07:41:48;16.40;99.90
70726;DHT22;58304;53.104;6.022;2022-09-12T07:44:13;16.40;99.90
70726;DHT22;58304;53.104;6.022;2022-09-12T07:46:40;16.50;99.90
70726;DHT22;58304;53.104;6.022;2022-09-12T07:49:06;16.50;99.90
70726;DHT22;58304;53.104;6.022;2022-09-12T07:51:32;16.50;99.90
70726;DHT22;58304;53.104;6.022;2022-09-12T07:53:58;16.60;99.90
70726;DHT22;58304;53.104;6.022;2022-09-12T07:56:24;16.60;99.90
70726;DHT22;58304;53.104;6.022;2022-09-12T07:58:51;16.80;99.90
70726;DHT22;58304;53.104;6.022;2022-09-12T08:01:19;16.90;99.90
70726;DHT22;58304;53.104;6.022;2022-09-12T08:03:47;17.10;99.90
70726;DHT22;58304;53.104;6.022;2022-09-12T08:06:20;17.30;99.90
70726;DHT22;58304;53.104;6.022;2022-09-12T08:08:49;17.50;99.90
70726;DHT22;58304;53.104;6.022;2022-09-12T08:11:17;17.80;99.90
70726;DHT22;58304;53.104;6.022;2022-09-12T08:13:43;18.00;99.90
70726;DHT22;58304;53.104;6.022;2022-09-12T08:16:19;18.30;99.90
70726;DHT22;58304;53.104;6.022;2022-09-12T08:18:47;18.70;99.90
70726;DHT22;58304;53.104;6.022;2022-09-12T08:21:18;19.00;99.90
70726;DHT22;58304;53.104;6.022;2022-09-12T08:23:44;19.20;99.90
70726;DHT22;58304;53.104;6.022;2022-09-12T08:26:11;19.50;99.90
70726;DHT22;58304;53.104;6.022;2022-09-12T08:28:37;19.90;99.90
70726;DHT22;58304;53.104;6.022;2022-09-12T08:31:11;19.80;99.90
70726;DHT22;58304;53.104;6.022;2022-09-12T08:33:37;20.00;99.90
70726;DHT22;58304;53.104;6.022;2022-09-12T08:36:11;19.90;99.90
70726;DHT22;58304;53.104;6.022;2022-09-12T08:38:38;20.00;99.90
70726;DHT22;58304;53.104;6.022;2022-09-12T08:47:15;20.00;99.90
70726;DHT22;58304;53.104;6.022;2022-09-12T08:49:56;20.30;99.90
70726;DHT22;58304;53.104;6.022;2022-09-12T08:52:36;20.40;99.90
70726;DHT22;58304;53.104;6.022;2022-09-12T08:55:05;20.50;99.90
70726;DHT22;58304;53.104;6.022;2022-09-12T08:57:35;20.70;99.90
70726;DHT22;58304;53.104;6.022;2022-09-12T09:00:03;20.80;99.90
70726;DHT22;58304;53.104;6.022;2022-09-12T09:08:39;22.10;99.90
70726;DHT22;58304;53.104;6.022;2022-09-12T09:20:25;22.10;99.90
70726;DHT22;58304;53.104;6.022;2022-09-12T09:26:03;23.30;99.90
70726;DHT22;58304;53.104;6.022;2022-09-12T09:28:35;23.90;99.90
70726;DHT22;58304;53.104;6.022;2022-09-12T09:31:04;24.40;99.90
70726;DHT22;58304;53.104;6.022;2022-09-12T09:33:33;24.90;99.90
70726;DHT22;58304;53.104;6.022;2022-09-12T09:36:20;25.10;99.90
70726;DHT22;58304;53.104;6.022;2022-09-12T09:42:07;26.40;99.90
70726;DHT22;58304;53.104;6.022;2022-09-12T09:44:28;26.80;99.90
70726;DHT22;58304;53.104;6.022;2022-09-12T09:46:55;28.10;99.90
70726;DHT22;58304;53.104;6.022;2022-09-12T09:49:23;29.50;99.90
70726;DHT22;58304;53.104;6.022;2022-09-12T09:51:50;28.80;99.90
70726;DHT22;58304;53.104;6.022;2022-09-12T09:54:24;28.90;99.90
70726;DHT22;58304;53.104;6.022;2022-09-12T09:56:50;30.10;99.90
70726;DHT22;58304;53.104;6.022;2022-09-12T09:59:28;29.40;98.80
70726;DHT22;58304;53.104;6.022;2022-09-12T10:02:00;28.90;95.70
70726;DHT22;58304;53.104;6.022;2022-09-12T10:04:38;28.40;96.30
70726;DHT22;58304;53.104;6.022;2022-09-12T10:07:04;29.40;98.00
70726;DHT22;58304;53.104;6.022;2022-09-12T10:09:34;30.00;96.20
70726;DHT22;58304;53.104;6.022;2022-09-12T10:12:25;30.40;96.50
70726;DHT22;58304;53.104;6.022;2022-09-12T10:14:59;31.00;94.60
70726;DHT22;58304;53.104;6.022;2022-09-12T10:17:31;31.30;92.20
70726;DHT22;58304;53.104;6.022;2022-09-12T10:20:04;31.20;93.10
70726;DHT22;58304;53.104;6.022;2022-09-12T10:22:30;31.90;93.10
70726;DHT22;58304;53.104;6.022;2022-09-12T10:24:58;31.50;92.00
70726;DHT22;58304;53.104;6.022;2022-09-12T10:27:29;31.60;91.40
70726;DHT22;58304;53.104;6.022;2022-09-12T10:32:41;32.30;89.80
70726;DHT22;58304;53.104;6.022;2022-09-12T10:37:59;32.30;86.90
70726;DHT22;58304;53.104;6.022;2022-09-12T10:40:28;32.40;83.50
70726;DHT22;58304;53.104;6.022;2022-09-12T10:42:58;32.30;84.90
70726;DHT22;58304;53.104;6.022;2022-09-12T10:45:32;32.60;85.70
70726;DHT22;58304;53.104;6.022;2022-09-12T10:48:02;32.70;82.90
70726;DHT22;58304;53.104;6.022;2022-09-12T10:50:40;32.80;82.00
70726;DHT22;58304;53.104;6.022;2022-09-12T10:53:18;33.00;77.60
70726;DHT22;58304;53.104;6.022;2022-09-12T11:06:36;33.10;78.20
70726;DHT22;58304;53.104;6.022;2022-09-12T11:11:54;33.10;76.60
70726;DHT22;58304;53.104;6.022;2022-09-12T11:14:24;33.10;77.80
70726;DHT22;58304;53.104;6.022;2022-09-12T11:24:48;31.80;78.00
70726;DHT22;58304;53.104;6.022;2022-09-12T11:30:12;31.70;78.50
70726;DHT22;58304;53.104;6.022;2022-09-12T11:35:34;31.60;79.30
70726;DHT22;58304;53.104;6.022;2022-09-12T11:38:36;31.70;78.90
70726;DHT22;58304;53.104;6.022;2022-09-12T11:41:24;31.30;74.90
70726;DHT22;58304;53.104;6.022;2022-09-12T11:44:07;31.10;74.40
70726;DHT22;58304;53.104;6.022;2022-09-12T11:46:37;31.10;73.80
70726;DHT22;58304;53.104;6.022;2022-09-12T11:54:20;30.80;76.70
70726;DHT22;58304;53.104;6.022;2022-09-12T11:56:52;30.60;76.50
70726;DHT22;58304;53.104;6.022;2022-09-12T11:59:45;30.50;76.50
70726;DHT22;58304;53.104;6.022;2022-09-12T12:02:42;30.70;77.40
70726;DHT22;58304;53.104;6.022;2022-09-12T12:05:19;30.70;75.80
70726;DHT22;58304;53.104;6.022;2022-09-12T12:07:53;30.90;74.50
70726;DHT22;58304;53.104;6.022;2022-09-12T12:10:34;31.10;73.70
70726;DHT22;58304;53.104;6.022;2022-09-12T12:15:52;30.80;74.10
70726;DHT22;58304;53.104;6.022;2022-09-12T12:18:22;30.60;74.20
70726;DHT22;58304;53.104;6.022;2022-09-12T12:20:49;30.30;74.00
70726;DHT22;58304;53.104;6.022;2022-09-12T12:23:29;30.00;73.30
70726;DHT22;58304;53.104;6.022;2022-09-12T12:26:00;29.50;75.60
70726;DHT22;58304;53.104;6.022;2022-09-12T12:28:56;29.20;75.70
70726;DHT22;58304;53.104;6.022;2022-09-12T12:31:22;29.20;75.90
70726;DHT22;58304;53.104;6.022;2022-09-12T12:36:34;29.30;75.10
70726;DHT22;58304;53.104;6.022;2022-09-12T12:42:00;30.10;75.60
70726;DHT22;58304;53.104;6.022;2022-09-12T12:44:49;30.10;73.30
70726;DHT22;58304;53.104;6.022;2022-09-12T12:47:27;30.00;72.10
70726;DHT22;58304;53.104;6.022;2022-09-12T12:58:35;29.00;74.90
70726;DHT22;58304;53.104;6.022;2022-09-12T13:03:31;28.90;75.80
70726;DHT22;58304;53.104;6.022;2022-09-12T13:06:05;28.70;75.60
70726;DHT22;58304;53.104;6.022;2022-09-12T13:08:35;28.60;76.80
70726;DHT22;58304;53.104;6.022;2022-09-12T13:11:31;28.60;77.60
70726;DHT22;58304;53.104;6.022;2022-09-12T13:13:58;29.00;77.50
70726;DHT22;58304;53.104;6.022;2022-09-12T13:16:33;29.10;76.60
70726;DHT22;58304;53.104;6.022;2022-09-12T13:19:26;29.20;77.70
70726;DHT22;58304;53.104;6.022;2022-09-12T13:22:05;29.60;77.40
70726;DHT22;58304;53.104;6.022;2022-09-12T13:24:32;29.40;76.40
70726;DHT22;58304;53.104;6.022;2022-09-12T13:26:58;29.60;76.00
70726;DHT22;58304;53.104;6.022;2022-09-12T13:29:26;29.50;75.20
70726;DHT22;58304;53.104;6.022;2022-09-12T13:31:55;29.50;74.80
70726;DHT22;58304;53.104;6.022;2022-09-12T13:34:29;29.50;75.10
70726;DHT22;58304;53.104;6.022;2022-09-12T13:37:29;29.40;75.30
70726;DHT22;58304;53.104;6.022;2022-09-12T13:42:38;29.50;75.40
70726;DHT22;58304;53.104;6.022;2022-09-12T13:45:21;29.50;77.60
70726;DHT22;58304;53.104;6.022;2022-09-12T13:47:59;29.40;76.60
70726;DHT22;58304;53.104;6.022;2022-09-12T13:50:38;29.50;76.20
70726;DHT22;58304;53.104;6.022;2022-09-12T13:53:15;29.50;76.70
70726;DHT22;58304;53.104;6.022;2022-09-12T13:55:45;29.60;76.30
70726;DHT22;58304;53.104;6.022;2022-09-12T13:58:26;29.70;76.40
70726;DHT22;58304;53.104;6.022;2022-09-12T14:01:15;29.90;76.10
70726;DHT22;58304;53.104;6.022;2022-09-12T14:03:53;29.80;75.30
70726;DHT22;58304;53.104;6.022;2022-09-12T14:06:46;29.60;76.40
70726;DHT22;58304;53.104;6.022;2022-09-12T14:09:25;29.50;77.00
70726;DHT22;58304;53.104;6.022;2022-09-12T14:11:54;29.60;76.30
70726;DHT22;58304;53.104;6.022;2022-09-12T14:14:40;29.00;77.40
70726;DHT22;58304;53.104;6.022;2022-09-12T14:17:35;28.80;77.90
70726;DHT22;58304;53.104;6.022;2022-09-12T14:20:06;28.40;77.30
70726;DHT22;58304;53.104;6.022;2022-09-12T14:22:32;28.40;78.50
70726;DHT22;58304;53.104;6.022;2022-09-12T14:24:59;28.30;78.60
70726;DHT22;58304;53.104;6.022;2022-09-12T14:27:38;28.50;78.60
70726;DHT22;58304;53.104;6.022;2022-09-12T14:33:12;28.70;78.50
70726;DHT22;58304;53.104;6.022;2022-09-12T14:35:43;28.80;78.50
70726;DHT22;58304;53.104;6.022;2022-09-12T14:38:24;28.90;77.50
70726;DHT22;58304;53.104;6.022;2022-09-12T14:41:01;28.80;77.60
70726;DHT22;58304;53.104;6.022;2022-09-12T14:43:30;28.50;78.10
70726;DHT22;58304;53.104;6.022;2022-09-12T14:46:17;28.20;77.40
70726;DHT22;58304;53.104;6.022;2022-09-12T14:48:50;28.00;76.50
70726;DHT22;58304;53.104;6.022;2022-09-12T14:51:27;27.70;77.50
70726;DHT22;58304;53.104;6.022;2022-09-12T14:57:38;27.80;79.40
70726;DHT22;58304;53.104;6.022;2022-09-12T15:00:36;28.20;78.20
70726;DHT22;58304;53.104;6.022;2022-09-12T15:03:52;28.50;79.30
70726;DHT22;58304;53.104;6.022;2022-09-12T15:06:38;28.70;79.00
70726;DHT22;58304;53.104;6.022;2022-09-12T15:09:10;28.80;78.20
70726;DHT22;58304;53.104;6.022;2022-09-12T15:11:39;28.80;78.80
70726;DHT22;58304;53.104;6.022;2022-09-12T15:14:21;28.80;78.60
70726;DHT22;58304;53.104;6.022;2022-09-12T15:16:47;28.70;78.00
70726;DHT22;58304;53.104;6.022;2022-09-12T15:19:12;28.50;78.60
70726;DHT22;58304;53.104;6.022;2022-09-12T15:21:48;28.40;78.90
70726;DHT22;58304;53.104;6.022;2022-09-12T15:24:15;28.20;79.60
70726;DHT22;58304;53.104;6.022;2022-09-12T15:26:42;28.00;79.90
70726;DHT22;58304;53.104;6.022;2022-09-12T15:29:07;27.80;79.80
70726;DHT22;58304;53.104;6.022;2022-09-12T15:31:33;27.70;79.70
70726;DHT22;58304;53.104;6.022;2022-09-12T15:34:00;27.50;80.50
70726;DHT22;58304;53.104;6.022;2022-09-12T15:36:32;27.30;81.10
70726;DHT22;58304;53.104;6.022;2022-09-12T15:39:16;27.20;81.70
70726;DHT22;58304;53.104;6.022;2022-09-12T15:41:42;27.00;81.70
70726;DHT22;58304;53.104;6.022;2022-09-12T15:44:11;27.00;81.90
70726;DHT22;58304;53.104;6.022;2022-09-12T15:46:37;26.90;82.30
70726;DHT22;58304;53.104;6.022;2022-09-12T15:49:09;26.80;82.90
70726;DHT22;58304;53.104;6.022;2022-09-12T15:51:36;26.70;83.90
70726;DHT22;58304;53.104;6.022;2022-09-12T15:54:39;26.60;84.00
70726;DHT22;58304;53.104;6.022;2022-09-12T15:57:35;26.70;85.20
70726;DHT22;58304;53.104;6.022;2022-09-12T16:00:25;26.70;84.80
70726;DHT22;58304;53.104;6.022;2022-09-12T16:03:22;26.60;84.60
70726;DHT22;58304;53.104;6.022;2022-09-12T16:06:04;26.50;85.40
70726;DHT22;58304;53.104;6.022;2022-09-12T16:08:36;26.50;85.70
70726;DHT22;58304;53.104;6.022;2022-09-12T16:11:17;26.50;85.60
70726;DHT22;58304;53.104;6.022;2022-09-12T16:13:54;26.30;86.10
70726;DHT22;58304;53.104;6.022;2022-09-12T16:16:20;26.20;87.00
70726;DHT22;58304;53.104;6.022;2022-09-12T16:19:05;26.00;87.10
70726;DHT22;58304;53.104;6.022;2022-09-12T16:21:30;26.10;87.60
70726;DHT22;58304;53.104;6.022;2022-09-12T16:24:01;26.00;87.40
70726;DHT22;58304;53.104;6.022;2022-09-12T16:26:27;25.90;87.80
70726;DHT22;58304;53.104;6.022;2022-09-12T16:29:02;25.70;88.00
70726;DHT22;58304;53.104;6.022;2022-09-12T16:31:27;25.70;88.60
70726;DHT22;58304;53.104;6.022;2022-09-12T16:33:56;25.50;88.40
70726;DHT22;58304;53.104;6.022;2022-09-12T16:36:22;25.50;89.10
70726;DHT22;58304;53.104;6.022;2022-09-12T16:39:06;25.40;89.40
70726;DHT22;58304;53.104;6.022;2022-09-12T16:41:31;25.30;90.30
70726;DHT22;58304;53.104;6.022;2022-09-12T16:43:57;25.20;90.30
70726;DHT22;58304;53.104;6.022;2022-09-12T16:46:28;25.20;90.50
70726;DHT22;58304;53.104;6.022;2022-09-12T16:48:56;25.10;90.40
70726;DHT22;58304;53.104;6.022;2022-09-12T16:51:32;25.10;90.60
70726;DHT22;58304;53.104;6.022;2022-09-12T16:54:00;25.00;90.90
70726;DHT22;58304;53.104;6.022;2022-09-12T16:56:39;24.90;90.70
70726;DHT22;58304;53.104;6.022;2022-09-12T16:59:07;24.80;91.70
70726;DHT22;58304;53.104;6.022;2022-09-12T17:01:51;24.70;91.50
70726;DHT22;58304;53.104;6.022;2022-09-12T17:04:17;24.50;92.30
70726;DHT22;58304;53.104;6.022;2022-09-12T17:06:42;24.50;92.10
70726;DHT22;58304;53.104;6.022;2022-09-12T17:09:09;24.40;92.40
70726;DHT22;58304;53.104;6.022;2022-09-12T17:11:45;24.20;92.60
70726;DHT22;58304;53.104;6.022;2022-09-12T17:14:15;24.20;93.20
70726;DHT22;58304;53.104;6.022;2022-09-12T17:16:48;24.10;93.30
70726;DHT22;58304;53.104;6.022;2022-09-12T17:19:23;23.90;93.80
70726;DHT22;58304;53.104;6.022;2022-09-12T17:21:56;23.80;93.90
70726;DHT22;58304;53.104;6.022;2022-09-12T17:24:22;23.60;93.80
70726;DHT22;58304;53.104;6.022;2022-09-12T17:26:48;23.50;94.10
70726;DHT22;58304;53.104;6.022;2022-09-12T17:29:16;23.40;94.30
70726;DHT22;58304;53.104;6.022;2022-09-12T17:31:42;23.30;94.50
70726;DHT22;58304;53.104;6.022;2022-09-12T17:34:08;23.20;94.50
70726;DHT22;58304;53.104;6.022;2022-09-12T17:36:34;23.00;95.30
70726;DHT22;58304;53.104;6.022;2022-09-12T17:39:02;22.80;95.80
70726;DHT22;58304;53.104;6.022;2022-09-12T17:41:29;22.70;96.40
70726;DHT22;58304;53.104;6.022;2022-09-12T17:44:04;22.60;96.90
70726;DHT22;58304;53.104;6.022;2022-09-12T17:46:40;22.50;97.50
70726;DHT22;58304;53.104;6.022;2022-09-12T17:49:11;22.50;97.80
70726;DHT22;58304;53.104;6.022;2022-09-12T17:51:41;22.40;97.80
70726;DHT22;58304;53.104;6.022;2022-09-12T17:54:15;22.30;98.00
70726;DHT22;58304;53.104;6.022;2022-09-12T17:56:42;22.20;98.30
70726;DHT22;58304;53.104;6.022;2022-09-12T17:59:16;22.10;98.60
70726;DHT22;58304;53.104;6.022;2022-09-12T18:01:42;22.00;99.40
70726;DHT22;58304;53.104;6.022;2022-09-12T18:04:26;21.80;99.90
70726;DHT22;58304;53.104;6.022;2022-09-12T18:06:52;21.70;99.90